createdAt,value
2023-05-14T00:00:00.621Z,9.4
2023-05-14T00:01:00.601Z,9.4
2023-05-14T00:02:00.684Z,9.4
2023-05-14T00:03:00.752Z,9.4
2023-05-14T00:04:00.722Z,9.4
2023-05-14T00:05:00.648Z,9.4
2023-05-14T00:06:00.614Z,9.4
2023-05-14T00:07:00.610Z,9.4
2023-05-14T00:08:00.610Z,9.4
2023-05-14T00:09:01.135Z,9.4
2023-05-14T00:10:00.634Z,9.4
2023-05-14T00:11:00.604Z,9.4
2023-05-14T00:12:00.633Z,9.4
2023-05-14T00:13:00.657Z,9.3
2023-05-14T00:14:00.660Z,9.3
2023-05-14T00:15:00.631Z,9.3
2023-05-14T00:16:00.692Z,9.3
2023-05-14T00:17:00.619Z,9.3
2023-05-14T00:18:00.760Z,9.3
2023-05-14T00:19:00.745Z,9.2
2023-05-14T00:20:00.629Z,9.3
2023-05-14T00:21:00.657Z,9.2
2023-05-14T00:22:00.652Z,9.2
2023-05-14T00:23:00.672Z,9.2
2023-05-14T00:24:00.612Z,9.2
2023-05-14T00:25:00.628Z,9.2
2023-05-14T00:26:00.625Z,9.2
2023-05-14T00:27:00.624Z,9.2
2023-05-14T00:28:00.666Z,9.1
2023-05-14T00:29:00.644Z,9.1
2023-05-14T00:30:00.663Z,9.1
2023-05-14T00:31:00.675Z,9.1
2023-05-14T00:32:00.643Z,9.1
2023-05-14T00:33:00.680Z,9
2023-05-14T00:34:00.647Z,9
2023-05-14T00:35:00.643Z,8.9
2023-05-14T00:36:00.633Z,8.9
2023-05-14T00:37:00.645Z,8.9
2023-05-14T00:38:00.639Z,8.9
2023-05-14T00:39:00.644Z,8.9
2023-05-14T00:40:00.678Z,8.8
2023-05-14T00:41:00.648Z,8.8
2023-05-14T00:42:00.651Z,8.8
2023-05-14T00:43:00.646Z,8.8
2023-05-14T00:44:00.647Z,8.8
2023-05-14T00:45:00.650Z,8.8
2023-05-14T00:46:00.648Z,8.8
2023-05-14T00:47:00.810Z,8.8
2023-05-14T00:48:00.781Z,8.8
2023-05-14T00:49:00.654Z,8.8
2023-05-14T00:50:00.654Z,8.8
2023-05-14T00:51:00.664Z,8.8
2023-05-14T00:52:00.651Z,8.7
2023-05-14T00:53:00.653Z,8.7
2023-05-14T00:54:00.649Z,8.7
2023-05-14T00:55:00.660Z,8.7
2023-05-14T00:56:00.677Z,8.7
2023-05-14T00:57:00.657Z,8.7
2023-05-14T00:58:00.664Z,8.7
2023-05-14T00:59:00.681Z,8.7
2023-05-14T01:00:00.775Z,8.8
2023-05-14T01:01:00.777Z,8.8
2023-05-14T01:02:00.663Z,8.8
2023-05-14T01:03:00.716Z,8.8
2023-05-14T01:04:00.833Z,8.8
2023-05-14T01:05:00.673Z,8.8
2023-05-14T01:06:00.667Z,8.9
2023-05-14T01:07:00.665Z,8.9
2023-05-14T01:08:00.656Z,8.9
2023-05-14T01:09:00.656Z,9
2023-05-14T01:10:00.635Z,9
2023-05-14T01:11:00.601Z,9
2023-05-14T01:12:00.579Z,9.1
2023-05-14T01:13:00.557Z,9.1
2023-05-14T01:14:00.511Z,9.1
2023-05-14T01:15:00.500Z,9.1
2023-05-14T01:16:00.534Z,9.2
2023-05-14T01:17:00.423Z,9.2
2023-05-14T01:18:00.413Z,9.2
2023-05-14T01:19:00.390Z,9.3
2023-05-14T01:20:00.420Z,9.3
2023-05-14T01:21:00.304Z,9.4
2023-05-14T01:22:00.317Z,9.4
2023-05-14T01:23:00.311Z,9.4
2023-05-14T01:24:00.332Z,9.4
2023-05-14T01:25:00.318Z,9.5
2023-05-14T01:26:00.327Z,9.5
2023-05-14T01:27:00.334Z,9.5
2023-05-14T01:28:00.326Z,9.5
2023-05-14T01:29:00.355Z,9.6
2023-05-14T01:30:00.348Z,9.6
2023-05-14T01:31:00.345Z,9.6
2023-05-14T01:32:00.413Z,9.6
2023-05-14T01:33:00.442Z,9.6
2023-05-14T01:34:00.328Z,9.7
2023-05-14T01:35:00.374Z,9.7
2023-05-14T01:36:00.356Z,9.7
2023-05-14T01:37:00.343Z,9.8
2023-05-14T01:38:00.337Z,9.8
2023-05-14T01:39:00.330Z,9.8
2023-05-14T01:40:00.374Z,9.8
2023-05-14T01:41:00.340Z,9.8
2023-05-14T01:42:00.333Z,9.9
2023-05-14T01:43:00.393Z,9.9
2023-05-14T01:44:00.346Z,9.9
2023-05-14T01:45:00.334Z,9.9
2023-05-14T01:46:00.419Z,9.9
2023-05-14T01:47:00.336Z,9.9
2023-05-14T01:48:00.412Z,9.9
2023-05-14T01:49:00.337Z,9.9
2023-05-14T01:50:00.342Z,10
2023-05-14T01:51:00.364Z,10
2023-05-14T01:52:00.360Z,10
2023-05-14T01:53:00.354Z,10.1
2023-05-14T01:54:00.352Z,10.1
2023-05-14T01:55:00.344Z,10.1
2023-05-14T01:56:00.341Z,10.1
2023-05-14T01:57:00.379Z,10.1
2023-05-14T01:58:00.350Z,10.1
2023-05-14T01:59:00.356Z,10.1
2023-05-14T02:00:00.372Z,10.1
2023-05-14T02:01:01.760Z,10.1
2023-05-14T02:02:01.768Z,10.2
2023-05-14T02:03:01.748Z,10.2
2023-05-14T02:04:01.746Z,10.2
2023-05-14T02:05:01.730Z,10.2
2023-05-14T02:06:01.748Z,10.2
2023-05-14T02:07:01.738Z,10.2
2023-05-14T02:08:01.741Z,10.2
2023-05-14T02:09:01.740Z,10.3
2023-05-14T02:10:01.758Z,10.3
2023-05-14T02:11:01.756Z,10.3
2023-05-14T02:12:01.746Z,10.4
2023-05-14T02:13:01.742Z,10.4
2023-05-14T02:14:01.740Z,10.4
2023-05-14T02:15:01.731Z,10.4
2023-05-14T02:16:01.776Z,10.4
2023-05-14T02:17:01.740Z,10.4
2023-05-14T02:18:01.858Z,10.4
2023-05-14T02:19:01.864Z,10.4
2023-05-14T02:20:01.746Z,10.4
2023-05-14T02:21:01.749Z,10.5
2023-05-14T02:22:01.761Z,10.5
2023-05-14T02:23:01.745Z,10.5
2023-05-14T02:24:01.794Z,10.6
2023-05-14T02:25:01.750Z,10.6
2023-05-14T02:26:01.749Z,10.6
2023-05-14T02:27:01.755Z,10.6
2023-05-14T02:28:01.749Z,10.6
2023-05-14T02:29:01.753Z,10.6
2023-05-14T02:30:01.824Z,10.6
2023-05-14T02:31:01.811Z,10.6
2023-05-14T02:32:01.760Z,10.6
2023-05-14T02:33:01.838Z,10.6
2023-05-14T02:34:01.794Z,10.7
2023-05-14T02:35:01.760Z,10.7
2023-05-14T02:36:01.780Z,10.7
2023-05-14T02:37:01.770Z,10.7
2023-05-14T02:38:01.762Z,10.7
2023-05-14T02:39:01.770Z,10.8
2023-05-14T02:40:01.855Z,10.8
2023-05-14T02:41:01.786Z,10.8
2023-05-14T02:42:01.782Z,10.8
2023-05-14T02:43:01.777Z,10.8
2023-05-14T02:44:01.775Z,10.8
2023-05-14T02:45:01.827Z,10.8
2023-05-14T02:46:01.784Z,10.8
2023-05-14T02:47:01.831Z,10.8
2023-05-14T02:48:01.833Z,10.8
2023-05-14T02:49:01.775Z,10.8
2023-05-14T02:50:01.827Z,10.8
2023-05-14T02:51:01.773Z,10.9
2023-05-14T02:52:01.776Z,10.9
2023-05-14T02:53:01.793Z,10.9
2023-05-14T02:54:01.781Z,10.9
2023-05-14T02:55:01.784Z,10.9
2023-05-14T02:56:01.805Z,10.9
2023-05-14T02:57:01.792Z,10.9
2023-05-14T02:58:01.807Z,10.9
2023-05-14T02:59:01.809Z,10.9
2023-05-14T03:00:01.815Z,10.9
2023-05-14T03:01:01.888Z,10.9
2023-05-14T03:02:01.904Z,10.9
2023-05-14T03:03:01.824Z,10.9
2023-05-14T03:04:01.810Z,10.9
2023-05-14T03:05:01.810Z,10.9
2023-05-14T03:06:01.812Z,10.9
2023-05-14T03:07:01.817Z,10.9
2023-05-14T03:08:01.812Z,10.9
2023-05-14T03:09:01.820Z,11
2023-05-14T03:10:01.857Z,11
2023-05-14T03:11:01.807Z,11
2023-05-14T03:12:01.808Z,11
2023-05-14T03:13:01.813Z,11
2023-05-14T03:14:01.821Z,11
2023-05-14T03:15:01.825Z,11
2023-05-14T03:16:01.827Z,11.1
2023-05-14T03:17:01.856Z,11.1
2023-05-14T03:18:01.857Z,11.1
2023-05-14T03:19:01.853Z,11.1
2023-05-14T03:20:01.896Z,11.1
2023-05-14T03:21:01.823Z,11.1
2023-05-14T03:22:01.821Z,11.1
2023-05-14T03:23:01.818Z,11.1
2023-05-14T03:24:01.879Z,11.1
2023-05-14T03:25:01.828Z,11.1
2023-05-14T03:26:01.839Z,11.1
2023-05-14T03:27:01.831Z,11.1
2023-05-14T03:28:01.838Z,11.1
2023-05-14T03:29:01.842Z,11.1
2023-05-14T03:30:01.853Z,11.1
2023-05-14T03:31:01.910Z,11.1
2023-05-14T03:32:01.851Z,11.1
2023-05-14T03:33:01.898Z,11.1
2023-05-14T03:34:01.832Z,11.2
2023-05-14T03:35:01.827Z,11.2
2023-05-14T03:36:01.827Z,11.1
2023-05-14T03:37:01.830Z,11.2
2023-05-14T03:38:01.834Z,11.2
2023-05-14T03:39:01.845Z,11.2
2023-05-14T03:40:01.837Z,11.2
2023-05-14T03:41:01.850Z,11.2
2023-05-14T03:42:01.834Z,11.2
2023-05-14T03:43:01.840Z,11.2
2023-05-14T03:44:01.848Z,11.2
2023-05-14T03:45:01.863Z,11.2
2023-05-14T03:46:01.861Z,11.2
2023-05-14T03:47:01.864Z,11.2
2023-05-14T03:48:01.894Z,11.2
2023-05-14T03:49:01.992Z,11.2
2023-05-14T03:50:01.883Z,11.2
2023-05-14T03:51:01.847Z,11.2
2023-05-14T03:52:01.857Z,11.2
2023-05-14T03:53:01.847Z,11.2
2023-05-14T03:54:01.856Z,11.3
2023-05-14T03:55:01.872Z,11.3
2023-05-14T03:56:01.849Z,11.3
2023-05-14T03:57:01.854Z,11.3
2023-05-14T03:58:01.892Z,11.3
2023-05-14T03:59:01.868Z,11.3
2023-05-14T04:00:01.865Z,11.3
2023-05-14T04:01:01.866Z,11.3
2023-05-14T04:02:01.862Z,11.3
2023-05-14T04:03:01.928Z,11.3
2023-05-14T04:04:02.018Z,11.3
2023-05-14T04:05:01.873Z,11.3
2023-05-14T04:06:01.862Z,11.3
2023-05-14T04:07:01.865Z,11.3
2023-05-14T04:08:01.874Z,11.3
2023-05-14T04:09:01.900Z,11.4
2023-05-14T04:10:04.276Z,11.3
2023-05-14T04:11:01.881Z,11.3
2023-05-14T04:12:01.877Z,11.3
2023-05-14T04:13:01.871Z,11.4
2023-05-14T04:14:01.888Z,11.4
2023-05-14T04:15:01.913Z,11.4
2023-05-14T04:16:01.871Z,11.4
2023-05-14T04:17:01.874Z,11.4
2023-05-14T04:18:01.907Z,11.4
2023-05-14T04:19:01.916Z,11.4
2023-05-14T04:20:01.889Z,11.4
2023-05-14T04:21:01.872Z,11.4
2023-05-14T04:22:01.904Z,11.4
2023-05-14T04:23:01.875Z,11.4
2023-05-14T04:24:01.909Z,11.4
2023-05-14T04:25:01.903Z,11.4
2023-05-14T04:26:01.889Z,11.4
2023-05-14T04:27:01.914Z,11.4
2023-05-14T04:28:01.881Z,11.4
2023-05-14T04:29:01.903Z,11.4
2023-05-14T04:30:01.888Z,11.4
2023-05-14T04:31:01.892Z,11.4
2023-05-14T04:32:01.902Z,11.4
2023-05-14T04:33:01.947Z,11.4
2023-05-14T04:34:01.881Z,11.4
2023-05-14T04:35:01.905Z,11.4
2023-05-14T04:36:01.893Z,11.4
2023-05-14T04:37:01.884Z,11.4
2023-05-14T04:38:01.895Z,11.4
2023-05-14T04:39:01.888Z,11.4
2023-05-14T04:40:01.902Z,11.4
2023-05-14T04:41:01.891Z,11.4
2023-05-14T04:42:01.899Z,11.4
2023-05-14T04:43:01.895Z,11.4
2023-05-14T04:44:01.903Z,11.4
2023-05-14T04:45:01.917Z,11.4
2023-05-14T04:46:02.027Z,11.4
2023-05-14T04:47:01.909Z,11.4
2023-05-14T04:48:01.967Z,11.4
2023-05-14T04:49:01.895Z,11.4
2023-05-14T04:50:01.922Z,11.5
2023-05-14T04:51:01.904Z,11.5
2023-05-14T04:52:01.903Z,11.5
2023-05-14T04:53:01.929Z,11.5
2023-05-14T04:54:01.935Z,11.5
2023-05-14T04:55:01.931Z,11.5
2023-05-14T04:56:01.901Z,11.5
2023-05-14T04:57:01.909Z,11.5
2023-05-14T04:58:01.912Z,11.6
2023-05-14T04:59:01.919Z,11.6
2023-05-14T05:00:01.918Z,11.6
2023-05-14T05:01:01.962Z,11.6
2023-05-14T05:02:01.912Z,11.6
2023-05-14T05:03:02.018Z,11.6
2023-05-14T05:04:01.960Z,11.6
2023-05-14T05:05:01.918Z,11.6
2023-05-14T05:06:01.946Z,11.6
2023-05-14T05:07:01.923Z,11.6
2023-05-14T05:08:01.942Z,11.6
2023-05-14T05:09:02.422Z,11.6
2023-05-14T05:10:01.927Z,11.6
2023-05-14T05:11:01.922Z,11.7
2023-05-14T05:12:01.985Z,11.7
2023-05-14T05:13:01.948Z,11.7
2023-05-14T05:14:01.945Z,11.7
2023-05-14T05:15:01.941Z,11.8
2023-05-14T05:16:02.027Z,11.8
2023-05-14T05:17:01.939Z,11.8
2023-05-14T05:18:01.986Z,11.8
2023-05-14T05:19:02.016Z,11.8
2023-05-14T05:20:01.940Z,11.8
2023-05-14T05:21:01.962Z,11.8
2023-05-14T05:22:01.948Z,11.9
2023-05-14T05:23:01.948Z,11.9
2023-05-14T05:24:01.954Z,11.9
2023-05-14T05:25:01.936Z,11.9
2023-05-14T05:26:01.956Z,12
2023-05-14T05:27:02.027Z,12
2023-05-14T05:28:01.940Z,12.1
2023-05-14T05:29:01.947Z,12.1
2023-05-14T05:30:01.948Z,12.1
2023-05-14T05:31:01.969Z,12.1
2023-05-14T05:32:01.950Z,12.1
2023-05-14T05:33:02.014Z,12.1
2023-05-14T05:34:01.951Z,12.1
2023-05-14T05:35:01.962Z,12.2
2023-05-14T05:36:01.958Z,12.2
2023-05-14T05:37:01.953Z,12.2
2023-05-14T05:38:02.048Z,12.2
2023-05-14T05:39:01.954Z,12.2
2023-05-14T05:40:01.980Z,12.2
2023-05-14T05:41:01.952Z,12.2
2023-05-14T05:42:01.953Z,12.2
2023-05-14T05:43:01.966Z,12.3
2023-05-14T05:44:01.952Z,12.3
2023-05-14T05:45:01.957Z,12.3
2023-05-14T05:46:01.977Z,12.4
2023-05-14T05:47:02.072Z,12.4
2023-05-14T05:48:02.014Z,12.4
2023-05-14T05:49:01.965Z,12.4
2023-05-14T05:50:01.985Z,12.5
2023-05-14T05:51:02.025Z,12.5
2023-05-14T05:52:01.961Z,12.5
2023-05-14T05:53:01.977Z,12.5
2023-05-14T05:54:01.993Z,12.6
2023-05-14T05:55:01.962Z,12.6
2023-05-14T05:56:01.968Z,12.6
2023-05-14T05:57:01.974Z,12.6
2023-05-14T05:58:01.968Z,12.6
2023-05-14T05:59:01.975Z,12.6
2023-05-14T06:00:01.978Z,12.6
2023-05-14T06:01:01.978Z,12.7
2023-05-14T06:02:02.034Z,12.7
2023-05-14T06:03:02.035Z,12.7
2023-05-14T06:04:01.978Z,12.7
2023-05-14T06:05:02.052Z,12.8
2023-05-14T06:06:01.984Z,12.8
2023-05-14T06:07:02.008Z,12.8
2023-05-14T06:08:01.982Z,12.8
2023-05-14T06:09:01.980Z,12.8
2023-05-14T06:10:01.985Z,12.8
2023-05-14T06:11:01.994Z,12.9
2023-05-14T06:12:01.983Z,12.9
2023-05-14T06:13:02.001Z,12.9
2023-05-14T06:14:02.041Z,12.9
2023-05-14T06:15:01.985Z,12.9
2023-05-14T06:16:02.133Z,12.9
2023-05-14T06:17:02.071Z,13
2023-05-14T06:18:02.042Z,13
2023-05-14T06:19:02.125Z,13
2023-05-14T06:20:02.000Z,13.1
2023-05-14T06:21:02.003Z,13.1
2023-05-14T06:22:01.991Z,13.2
2023-05-14T06:23:02.004Z,13.2
2023-05-14T06:24:02.013Z,13.2
2023-05-14T06:25:02.003Z,13.2
2023-05-14T06:26:02.003Z,13.3
2023-05-14T06:27:02.026Z,13.3
2023-05-14T06:28:02.022Z,13.3
2023-05-14T06:29:02.005Z,13.3
2023-05-14T06:30:02.028Z,13.3
2023-05-14T06:31:02.017Z,13.3
2023-05-14T06:32:02.067Z,13.3
2023-05-14T06:33:02.032Z,13.3
2023-05-14T06:34:02.029Z,13.4
2023-05-14T06:35:02.011Z,13.4
2023-05-14T06:36:02.019Z,13.4
2023-05-14T06:37:02.021Z,13.4
2023-05-14T06:38:02.017Z,13.5
2023-05-14T06:39:02.053Z,13.6
2023-05-14T06:40:02.015Z,13.6
2023-05-14T06:41:02.020Z,13.6
2023-05-14T06:42:02.017Z,13.7
2023-05-14T06:43:02.016Z,13.7
2023-05-14T06:44:02.015Z,13.8
2023-05-14T06:45:02.032Z,13.8
2023-05-14T06:46:02.022Z,13.8
2023-05-14T06:47:02.045Z,13.9
2023-05-14T06:48:02.060Z,13.9
2023-05-14T06:49:02.046Z,14
2023-05-14T06:50:02.068Z,14.1
2023-05-14T06:51:02.028Z,14.1
2023-05-14T06:52:02.030Z,14.2
2023-05-14T06:53:02.030Z,14.3
2023-05-14T06:54:02.029Z,14.3
2023-05-14T06:55:02.044Z,14.4
2023-05-14T06:56:02.038Z,14.4
2023-05-14T06:57:02.023Z,14.4
2023-05-14T06:58:02.028Z,14.4
2023-05-14T06:59:02.056Z,14.4
2023-05-14T07:00:03.736Z,14.4
2023-05-14T07:01:02.076Z,14.4
2023-05-14T07:02:02.052Z,14.4
2023-05-14T07:03:02.130Z,14.4
2023-05-14T07:04:02.095Z,14.4
2023-05-14T07:05:02.041Z,14.3
2023-05-14T07:06:02.049Z,14.3
2023-05-14T07:07:02.062Z,14.3
2023-05-14T07:08:02.048Z,14.3
2023-05-14T07:09:02.051Z,14.2
2023-05-14T07:10:02.065Z,14.2
2023-05-14T07:11:00.394Z,14.1
2023-05-14T07:12:00.384Z,14.1
2023-05-14T07:13:00.386Z,14.1
2023-05-14T07:14:00.374Z,14.1
2023-05-14T07:15:00.386Z,14.1
2023-05-14T07:16:00.385Z,14.2
2023-05-14T07:17:00.465Z,14.2
2023-05-14T07:18:00.430Z,14.2
2023-05-14T07:19:00.421Z,14.4
2023-05-14T07:20:00.402Z,14.4
2023-05-14T07:21:00.374Z,14.4
2023-05-14T07:22:00.404Z,14.4
2023-05-14T07:23:00.389Z,14.4
2023-05-14T07:24:00.409Z,14.4
2023-05-14T07:25:00.430Z,14.4
2023-05-14T07:26:00.385Z,14.4
2023-05-14T07:27:00.434Z,14.5
2023-05-14T07:28:00.374Z,14.6
2023-05-14T07:29:00.396Z,14.6
2023-05-14T07:30:00.431Z,14.6
2023-05-14T07:31:00.476Z,14.6
2023-05-14T07:32:00.388Z,14.7
2023-05-14T07:33:00.435Z,14.8
2023-05-14T07:34:00.416Z,14.8
2023-05-14T07:35:00.484Z,14.8
2023-05-14T07:36:00.386Z,14.9
2023-05-14T07:37:00.415Z,14.9
2023-05-14T07:38:00.397Z,14.9
2023-05-14T07:39:00.398Z,15
2023-05-14T07:40:00.421Z,15
2023-05-14T07:41:00.391Z,15.1
2023-05-14T07:42:00.399Z,15.1
2023-05-14T07:43:00.413Z,15.1
2023-05-14T07:44:00.401Z,15.1
2023-05-14T07:45:00.411Z,15.2
2023-05-14T07:46:00.431Z,15.2
2023-05-14T07:47:00.584Z,15.2
2023-05-14T07:48:00.597Z,15.3
2023-05-14T07:49:00.416Z,15.4
2023-05-14T07:50:00.411Z,15.4
2023-05-14T07:51:00.420Z,15.4
2023-05-14T07:52:00.412Z,15.4
2023-05-14T07:53:00.410Z,15.5
2023-05-14T07:54:00.399Z,15.6
2023-05-14T07:55:00.422Z,15.6
2023-05-14T07:56:00.410Z,15.6
2023-05-14T07:57:00.427Z,15.6
2023-05-14T07:58:00.457Z,15.6
2023-05-14T07:59:00.428Z,15.5
2023-05-14T08:00:00.422Z,15.5
2023-05-14T08:01:00.414Z,15.5
2023-05-14T08:02:00.449Z,15.6
2023-05-14T08:03:00.581Z,15.5
2023-05-14T08:04:00.563Z,15.6
2023-05-14T08:05:00.425Z,15.6
2023-05-14T08:06:00.441Z,15.6
2023-05-14T08:07:00.412Z,15.6
2023-05-14T08:08:00.438Z,15.6
2023-05-14T08:09:00.416Z,15.7
2023-05-14T08:10:00.456Z,15.7
2023-05-14T08:11:00.496Z,15.8
2023-05-14T08:12:00.427Z,15.8
2023-05-14T08:13:00.431Z,15.9
2023-05-14T08:14:00.445Z,15.9
2023-05-14T08:15:00.452Z,15.9
2023-05-14T08:16:00.433Z,15.9
2023-05-14T08:17:00.539Z,15.8
2023-05-14T08:18:00.468Z,15.9
2023-05-14T08:19:00.522Z,15.9
2023-05-14T08:20:00.436Z,15.9
2023-05-14T08:21:02.204Z,15.9
2023-05-14T08:22:00.452Z,15.9
2023-05-14T08:23:00.459Z,16.1
2023-05-14T08:24:00.447Z,16.2
2023-05-14T08:25:00.449Z,16.3
2023-05-14T08:26:00.443Z,16.3
2023-05-14T08:27:00.490Z,16.2
2023-05-14T08:28:00.462Z,16.2
2023-05-14T08:29:00.446Z,16.2
2023-05-14T08:30:00.488Z,16.2
2023-05-14T08:31:00.500Z,16.2
2023-05-14T08:32:05.970Z,16.1
2023-05-14T08:33:00.481Z,16.1
2023-05-14T08:34:00.466Z,16.1
2023-05-14T08:35:00.455Z,16.1
2023-05-14T08:36:00.521Z,16.1
2023-05-14T08:37:00.461Z,16.2
2023-05-14T08:38:00.464Z,16.2
2023-05-14T08:39:00.469Z,16.1
2023-05-14T08:40:00.467Z,16.1
2023-05-14T08:41:00.487Z,16
2023-05-14T08:42:00.461Z,15.9
2023-05-14T08:43:00.460Z,15.9
2023-05-14T08:44:00.481Z,15.9
2023-05-14T08:45:00.473Z,16
2023-05-14T08:46:00.456Z,16.1
2023-05-14T08:47:00.478Z,16.1
2023-05-14T08:48:00.607Z,16.1
2023-05-14T08:49:00.521Z,16.1
2023-05-14T08:50:00.466Z,16.1
2023-05-14T08:51:00.465Z,16.1
2023-05-14T08:52:00.478Z,16
2023-05-14T08:53:00.465Z,15.9
2023-05-14T08:54:00.472Z,15.9
2023-05-14T08:55:00.467Z,15.8
2023-05-14T08:56:00.469Z,15.8
2023-05-14T08:57:00.469Z,15.8
2023-05-14T08:58:00.475Z,15.8
2023-05-14T08:59:00.464Z,15.8
2023-05-14T09:00:00.524Z,15.7
2023-05-14T09:01:00.473Z,15.6
2023-05-14T09:02:00.555Z,15.6
2023-05-14T09:03:00.633Z,15.5
2023-05-14T09:04:00.498Z,15.5
2023-05-14T09:05:00.481Z,15.4
2023-05-14T09:06:00.476Z,15.3
2023-05-14T09:07:00.484Z,15.3
2023-05-14T09:08:00.481Z,15.3
2023-05-14T09:09:00.479Z,15.3
2023-05-14T09:10:00.513Z,15.2
2023-05-14T09:11:00.482Z,15.1
2023-05-14T09:12:00.487Z,15
2023-05-14T09:13:00.482Z,14.9
2023-05-14T09:14:00.500Z,14.9
2023-05-14T09:15:00.519Z,14.9
2023-05-14T09:16:00.511Z,14.9
2023-05-14T09:17:00.498Z,14.8
2023-05-14T09:18:00.559Z,14.8
2023-05-14T09:19:00.518Z,14.8
2023-05-14T09:20:00.493Z,14.8
2023-05-14T09:21:00.494Z,14.7
2023-05-14T09:22:00.493Z,14.7
2023-05-14T09:23:00.503Z,14.6
2023-05-14T09:24:00.503Z,14.6
2023-05-14T09:25:00.499Z,14.6
2023-05-14T09:26:00.495Z,14.6
2023-05-14T09:27:00.528Z,14.4
2023-05-14T09:28:00.516Z,14.4
2023-05-14T09:29:00.512Z,14.4
2023-05-14T09:30:00.511Z,14.4
2023-05-14T09:31:00.511Z,14.4
2023-05-14T09:32:00.561Z,14.4
2023-05-14T09:33:00.595Z,14.4
2023-05-14T09:34:00.522Z,14.3
2023-05-14T09:35:00.521Z,14.3
2023-05-14T09:36:00.526Z,14.2
2023-05-14T09:37:00.514Z,14.2
2023-05-14T09:38:00.514Z,14.2
2023-05-14T09:39:00.509Z,14.2
2023-05-14T09:40:00.532Z,14.2
2023-05-14T09:41:00.521Z,14.2
2023-05-14T09:42:00.531Z,14.3
2023-05-14T09:43:00.534Z,14.4
2023-05-14T09:44:00.531Z,14.4
2023-05-14T09:45:00.529Z,14.4
2023-05-14T09:46:00.528Z,14.5
2023-05-14T09:47:00.587Z,14.5
2023-05-14T09:48:00.683Z,14.5
2023-05-14T09:49:00.543Z,14.5
2023-05-14T09:50:00.549Z,14.5
2023-05-14T09:51:01.851Z,14.5
2023-05-14T09:52:00.521Z,14.5
2023-05-14T09:53:00.523Z,14.5
2023-05-14T09:54:00.544Z,14.6
2023-05-14T09:55:00.531Z,14.6
2023-05-14T09:56:00.532Z,14.6
2023-05-14T09:57:00.538Z,14.7
2023-05-14T09:58:00.523Z,14.7
2023-05-14T09:59:00.550Z,14.8
2023-05-14T10:00:00.543Z,14.8
2023-05-14T10:01:00.554Z,14.9
2023-05-14T10:02:00.537Z,14.9
2023-05-14T10:03:00.625Z,15.1
2023-05-14T10:04:00.660Z,15.1
2023-05-14T10:05:00.560Z,15.2
2023-05-14T10:06:00.551Z,15.4
2023-05-14T10:07:00.557Z,15.4
2023-05-14T10:08:00.548Z,15.4
2023-05-14T10:09:00.547Z,15.6
2023-05-14T10:10:00.575Z,15.7
2023-05-14T10:11:00.546Z,15.8
2023-05-14T10:12:00.580Z,15.9
2023-05-14T10:13:00.557Z,15.9
2023-05-14T10:14:00.562Z,15.9
2023-05-14T10:15:00.555Z,15.9
2023-05-14T10:16:00.562Z,16
2023-05-14T10:17:00.575Z,16.1
2023-05-14T10:18:00.725Z,16.2
2023-05-14T10:19:00.650Z,16.2
2023-05-14T10:20:00.561Z,16.3
2023-05-14T10:21:00.558Z,16.4
2023-05-14T10:22:00.561Z,16.5
2023-05-14T10:23:00.565Z,16.6
2023-05-14T10:24:00.553Z,16.8
2023-05-14T10:25:00.594Z,16.9
2023-05-14T10:26:00.607Z,16.9
2023-05-14T10:27:00.577Z,17.1
2023-05-14T10:28:00.579Z,17.1
2023-05-14T10:29:00.565Z,17.2
2023-05-14T10:30:00.563Z,17.2
2023-05-14T10:31:00.819Z,17.4
2023-05-14T10:32:00.569Z,17.5
2023-05-14T10:33:00.641Z,17.5
2023-05-14T10:34:00.565Z,17.6
2023-05-14T10:35:00.581Z,17.7
2023-05-14T10:36:00.593Z,17.8
2023-05-14T10:37:00.572Z,17.8
2023-05-14T10:38:00.581Z,17.8
2023-05-14T10:39:00.581Z,17.8
2023-05-14T10:40:00.573Z,17.7
2023-05-14T10:41:00.575Z,17.8
2023-05-14T10:42:00.577Z,17.8
2023-05-14T10:43:00.589Z,17.8
2023-05-14T10:44:00.576Z,17.9
2023-05-14T10:45:00.584Z,17.9
2023-05-14T10:46:00.580Z,17.9
2023-05-14T10:47:00.635Z,18
2023-05-14T10:48:00.687Z,18.1
2023-05-14T10:49:00.589Z,18.1
2023-05-14T10:50:00.581Z,18.1
2023-05-14T10:51:00.634Z,18.1
2023-05-14T10:52:00.600Z,18.2
2023-05-14T10:53:00.601Z,18.1
2023-05-14T10:54:00.583Z,18.1
2023-05-14T10:55:03.162Z,18.1
2023-05-14T10:56:00.602Z,18.1
2023-05-14T10:57:00.596Z,18
2023-05-14T10:58:00.592Z,18
2023-05-14T10:59:00.600Z,18.1
2023-05-14T11:00:00.630Z,18.1
2023-05-14T11:01:00.595Z,18.1
2023-05-14T11:02:00.697Z,18.1
2023-05-14T11:03:00.676Z,18.1
2023-05-14T11:04:00.676Z,18.2
2023-05-14T11:05:00.620Z,18.2
2023-05-14T11:06:00.603Z,18.2
2023-05-14T11:07:00.610Z,18.3
2023-05-14T11:08:00.602Z,18.4
2023-05-14T11:09:00.609Z,18.7
2023-05-14T11:10:00.601Z,18.8
2023-05-14T11:11:00.632Z,18.9
2023-05-14T11:12:00.620Z,19
2023-05-14T11:13:00.618Z,19
2023-05-14T11:14:00.613Z,19
2023-05-14T11:15:00.611Z,19.1
2023-05-14T11:16:06.286Z,19.2
2023-05-14T11:17:00.670Z,19.3
2023-05-14T11:18:00.641Z,19.4
2023-05-14T11:19:00.665Z,19.4
2023-05-14T11:20:00.645Z,19.5
2023-05-14T11:21:00.712Z,19.6
2023-05-14T11:22:00.633Z,19.7
2023-05-14T11:23:00.614Z,19.8
2023-05-14T11:24:00.617Z,19.8
2023-05-14T11:25:00.639Z,20
2023-05-14T11:26:00.652Z,19.9
2023-05-14T11:27:00.645Z,19.8
2023-05-14T11:28:00.663Z,19.8
2023-05-14T11:29:00.652Z,19.7
2023-05-14T11:30:00.629Z,19.6
2023-05-14T11:31:00.643Z,19.6
2023-05-14T11:32:00.652Z,19.5
2023-05-14T11:33:01.889Z,19.5
2023-05-14T11:34:00.639Z,19.4
2023-05-14T11:35:00.645Z,19.5
2023-05-14T11:36:00.631Z,19.6
2023-05-14T11:37:00.636Z,19.6
2023-05-14T11:38:00.638Z,19.6
2023-05-14T11:39:00.644Z,19.6
2023-05-14T11:40:00.645Z,19.5
2023-05-14T11:41:00.659Z,19.4
2023-05-14T11:42:00.643Z,19.4
2023-05-14T11:43:00.681Z,19.4
2023-05-14T11:44:00.667Z,19.4
2023-05-14T11:45:00.647Z,19.3
2023-05-14T11:46:00.724Z,19.3
2023-05-14T11:47:00.648Z,19.3
2023-05-14T11:48:00.722Z,19.4
2023-05-14T11:49:00.653Z,19.5
2023-05-14T11:50:00.681Z,19.6
2023-05-14T11:51:00.658Z,19.7
2023-05-14T11:52:00.666Z,19.8
2023-05-14T11:53:00.652Z,19.8
2023-05-14T11:54:00.678Z,19.8
2023-05-14T11:55:00.656Z,19.9
2023-05-14T11:56:00.667Z,19.9
2023-05-14T11:57:00.660Z,20
2023-05-14T11:58:00.666Z,20
2023-05-14T11:59:00.661Z,20
2023-05-14T12:00:00.667Z,20
2023-05-14T12:01:00.667Z,19.9
2023-05-14T12:02:00.654Z,19.9
2023-05-14T12:03:00.738Z,19.8
2023-05-14T12:04:01.645Z,19.6
2023-05-14T12:05:00.689Z,19.4
2023-05-14T12:06:00.677Z,19.3
2023-05-14T12:07:00.672Z,19.1
2023-05-14T12:08:00.683Z,19
2023-05-14T12:09:00.674Z,18.9
2023-05-14T12:10:00.670Z,18.8
2023-05-14T12:11:00.712Z,18.6
2023-05-14T12:12:00.691Z,18.4
2023-05-14T12:13:00.666Z,18.3
2023-05-14T12:14:00.673Z,18.2
2023-05-14T12:15:00.674Z,18.2
2023-05-14T12:16:00.821Z,18.1
2023-05-14T12:17:00.681Z,18.1
2023-05-14T12:18:02.644Z,18
2023-05-14T12:19:00.766Z,17.9
2023-05-14T12:20:00.677Z,17.9
2023-05-14T12:21:00.682Z,18
2023-05-14T12:22:00.700Z,18
2023-05-14T12:23:00.703Z,18
2023-05-14T12:24:00.707Z,18
2023-05-14T12:25:00.687Z,18
2023-05-14T12:26:00.681Z,18
2023-05-14T12:27:00.698Z,18.1
2023-05-14T12:28:00.703Z,18.1
2023-05-14T12:29:00.693Z,18.2
2023-05-14T12:30:12.883Z,18.3
2023-05-14T12:31:00.748Z,18.4
2023-05-14T12:32:00.688Z,18.5
2023-05-14T12:33:00.735Z,18.6
2023-05-14T12:34:00.694Z,18.8
2023-05-14T12:35:00.712Z,18.9
2023-05-14T12:36:09.927Z,19.1
2023-05-14T12:37:00.695Z,19.1
2023-05-14T12:38:00.699Z,19.2
2023-05-14T12:39:00.717Z,19.3
2023-05-14T12:40:00.693Z,19.4
2023-05-14T12:41:00.707Z,19.5
2023-05-14T12:42:00.703Z,19.6
2023-05-14T12:43:00.704Z,19.7
2023-05-14T12:44:00.698Z,19.8
2023-05-14T12:45:00.708Z,19.8
2023-05-14T12:46:00.735Z,19.8
2023-05-14T12:47:00.772Z,19.7
2023-05-14T12:48:00.784Z,19.6
2023-05-14T12:49:00.719Z,19.6
2023-05-14T12:50:00.718Z,19.6
2023-05-14T12:51:00.719Z,19.6
2023-05-14T12:52:19.495Z,19.7
2023-05-14T12:53:00.722Z,19.6
2023-05-14T12:54:00.708Z,19.6
2023-05-14T12:55:00.732Z,19.6
2023-05-14T12:56:00.720Z,19.6
2023-05-14T12:57:00.725Z,19.6
2023-05-14T12:58:00.714Z,19.7
2023-05-14T12:59:00.720Z,19.6
2023-05-14T13:00:00.747Z,19.6
2023-05-14T13:01:00.781Z,19.5
2023-05-14T13:02:00.729Z,19.6
2023-05-14T13:03:00.744Z,19.6
2023-05-14T13:04:00.855Z,19.6
2023-05-14T13:05:00.748Z,19.6
2023-05-14T13:06:00.726Z,19.6
2023-05-14T13:07:00.732Z,19.6
2023-05-14T13:08:00.725Z,19.6
2023-05-14T13:09:00.736Z,19.7
2023-05-14T13:10:00.725Z,19.6
2023-05-14T13:11:00.740Z,19.8
2023-05-14T13:12:00.670Z,19.8
2023-05-14T13:13:00.646Z,19.8
2023-05-14T13:14:00.673Z,19.9
2023-05-14T13:15:00.716Z,19.9
2023-05-14T13:16:00.574Z,19.9
2023-05-14T13:17:00.692Z,19.9
2023-05-14T13:18:00.565Z,19.9
2023-05-14T13:19:00.555Z,19.9
2023-05-14T13:20:00.495Z,19.9
2023-05-14T13:21:00.410Z,19.9
2023-05-14T13:22:00.400Z,20
2023-05-14T13:23:00.357Z,20.1
2023-05-14T13:24:00.329Z,20.1
2023-05-14T13:25:00.306Z,20.2